sensor_id;sensor_type;location;lat;lon;timestamp;P1;durP1;ratioP1;P2;durP2;ratioP2
72235;SDS011;60146;52.498;13.462;2022-09-30T00:01:16;16.43;;;7.67;;
72235;SDS011;60146;52.498;13.462;2022-09-30T00:03:41;21.13;;;8.63;;
72235;SDS011;60146;52.498;13.462;2022-09-30T00:06:07;15.90;;;7.77;;
72235;SDS011;60146;52.498;13.462;2022-09-30T00:08:32;15.27;;;7.17;;
72235;SDS011;60146;52.498;13.462;2022-09-30T00:11:02;14.40;;;7.17;;
72235;SDS011;60146;52.498;13.462;2022-09-30T00:13:28;12.98;;;7.43;;
72235;SDS011;60146;52.498;13.462;2022-09-30T00:15:53;17.83;;;7.20;;
72235;SDS011;60146;52.498;13.462;2022-09-30T00:18:19;18.70;;;8.07;;
72235;SDS011;60146;52.498;13.462;2022-09-30T00:20:44;18.27;;;7.83;;
72235;SDS011;60146;52.498;13.462;2022-09-30T00:23:09;28.30;;;9.60;;
72235;SDS011;60146;52.498;13.462;2022-09-30T00:25:34;25.17;;;10.20;;
72235;SDS011;60146;52.498;13.462;2022-09-30T00:27:59;21.80;;;8.60;;
72235;SDS011;60146;52.498;13.462;2022-09-30T00:30:24;19.83;;;9.40;;
72235;SDS011;60146;52.498;13.462;2022-09-30T00:32:49;17.90;;;8.47;;
72235;SDS011;60146;52.498;13.462;2022-09-30T00:35:15;21.02;;;8.15;;
72235;SDS011;60146;52.498;13.462;2022-09-30T00:37:40;14.50;;;7.33;;
72235;SDS011;60146;52.498;13.462;2022-09-30T00:40:05;12.73;;;6.90;;
72235;SDS011;60146;52.498;13.462;2022-09-30T00:42:31;15.83;;;7.30;;
72235;SDS011;60146;52.498;13.462;2022-09-30T00:49:56;18.93;;;8.10;;
72235;SDS011;60146;52.498;13.462;2022-09-30T00:52:23;29.23;;;10.43;;
72235;SDS011;60146;52.498;13.462;2022-09-30T00:54:48;24.50;;;8.52;;
72235;SDS011;60146;52.498;13.462;2022-09-30T00:57:15;17.53;;;8.10;;
72235;SDS011;60146;52.498;13.462;2022-09-30T00:59:40;18.23;;;8.10;;
72235;SDS011;60146;52.498;13.462;2022-09-30T01:02:07;24.90;;;9.73;;
72235;SDS011;60146;52.498;13.462;2022-09-30T01:04:34;49.13;;;15.40;;
72235;SDS011;60146;52.498;13.462;2022-09-30T01:07:04;32.73;;;11.00;;
72235;SDS011;60146;52.498;13.462;2022-09-30T01:09:30;20.80;;;8.50;;
72235;SDS011;60146;52.498;13.462;2022-09-30T01:11:57;21.23;;;8.30;;
72235;SDS011;60146;52.498;13.462;2022-09-30T01:14:23;19.20;;;8.30;;
72235;SDS011;60146;52.498;13.462;2022-09-30T01:19:36;22.80;;;8.77;;
72235;SDS011;60146;52.498;13.462;2022-09-30T01:27:20;25.23;;;9.53;;
72235;SDS011;60146;52.498;13.462;2022-09-30T01:32:33;16.08;;;7.32;;
72235;SDS011;60146;52.498;13.462;2022-09-30T01:35:07;17.27;;;6.87;;
72235;SDS011;60146;52.498;13.462;2022-09-30T01:40:10;22.93;;;8.50;;
72235;SDS011;60146;52.498;13.462;2022-09-30T01:45:17;19.80;;;7.87;;
72235;SDS011;60146;52.498;13.462;2022-09-30T01:47:51;15.40;;;8.00;;
72235;SDS011;60146;52.498;13.462;2022-09-30T01:50:19;18.23;;;7.70;;
72235;SDS011;60146;52.498;13.462;2022-09-30T01:55:33;48.23;;;11.63;;
72235;SDS011;60146;52.498;13.462;2022-09-30T01:58:21;26.83;;;8.60;;
72235;SDS011;60146;52.498;13.462;2022-09-30T02:00:51;20.93;;;7.57;;
72235;SDS011;60146;52.498;13.462;2022-09-30T02:03:18;13.33;;;6.00;;
72235;SDS011;60146;52.498;13.462;2022-09-30T02:05:52;12.60;;;6.93;;
72235;SDS011;60146;52.498;13.462;2022-09-30T02:08:25;12.77;;;6.07;;
72235;SDS011;60146;52.498;13.462;2022-09-30T02:10:55;10.03;;;5.60;;
72235;SDS011;60146;52.498;13.462;2022-09-30T02:13:26;21.97;;;8.73;;
72235;SDS011;60146;52.498;13.462;2022-09-30T02:15:54;30.03;;;9.70;;
72235;SDS011;60146;52.498;13.462;2022-09-30T02:18:30;32.80;;;10.20;;
72235;SDS011;60146;52.498;13.462;2022-09-30T02:20:59;18.13;;;7.67;;
72235;SDS011;60146;52.498;13.462;2022-09-30T02:23:26;14.70;;;6.23;;
72235;SDS011;60146;52.498;13.462;2022-09-30T02:26:00;11.47;;;6.17;;
72235;SDS011;60146;52.498;13.462;2022-09-30T02:28:30;11.10;;;6.00;;
72235;SDS011;60146;52.498;13.462;2022-09-30T02:30:56;10.37;;;5.90;;
72235;SDS011;60146;52.498;13.462;2022-09-30T02:33:26;14.30;;;6.20;;
72235;SDS011;60146;52.498;13.462;2022-09-30T02:35:56;21.67;;;9.27;;
72235;SDS011;60146;52.498;13.462;2022-09-30T02:38:27;28.03;;;10.73;;
72235;SDS011;60146;52.498;13.462;2022-09-30T02:43:18;21.13;;;8.07;;
72235;SDS011;60146;52.498;13.462;2022-09-30T02:48:19;24.27;;;9.27;;
72235;SDS011;60146;52.498;13.462;2022-09-30T02:50:49;30.97;;;11.00;;
72235;SDS011;60146;52.498;13.462;2022-09-30T02:53:21;34.80;;;12.57;;
72235;SDS011;60146;52.498;13.462;2022-09-30T02:58:17;45.07;;;14.03;;
72235;SDS011;60146;52.498;13.462;2022-09-30T03:00:44;23.00;;;8.63;;
72235;SDS011;60146;52.498;13.462;2022-09-30T03:03:11;16.53;;;7.13;;
72235;SDS011;60146;52.498;13.462;2022-09-30T03:05:39;15.63;;;6.73;;
72235;SDS011;60146;52.498;13.462;2022-09-30T03:08:04;12.43;;;6.43;;
72235;SDS011;60146;52.498;13.462;2022-09-30T03:10:29;14.10;;;6.43;;
72235;SDS011;60146;52.498;13.462;2022-09-30T03:15:29;20.17;;;8.67;;
72235;SDS011;60146;52.498;13.462;2022-09-30T03:20:44;14.00;;;6.30;;
72235;SDS011;60146;52.498;13.462;2022-09-30T03:30:46;29.17;;;10.70;;
72235;SDS011;60146;52.498;13.462;2022-09-30T03:38:24;39.17;;;12.30;;
72235;SDS011;60146;52.498;13.462;2022-09-30T03:40:55;43.23;;;14.60;;
72235;SDS011;60146;52.498;13.462;2022-09-30T03:46:29;58.23;;;17.10;;
72235;SDS011;60146;52.498;13.462;2022-09-30T03:48:58;49.47;;;13.80;;
72235;SDS011;60146;52.498;13.462;2022-09-30T03:51:25;30.47;;;9.23;;
72235;SDS011;60146;52.498;13.462;2022-09-30T03:53:50;23.30;;;8.90;;
72235;SDS011;60146;52.498;13.462;2022-09-30T03:56:26;19.03;;;8.40;;
72235;SDS011;60146;52.498;13.462;2022-09-30T03:58:52;20.43;;;7.57;;
72235;SDS011;60146;52.498;13.462;2022-09-30T04:01:18;18.63;;;7.87;;
72235;SDS011;60146;52.498;13.462;2022-09-30T04:03:45;23.83;;;9.83;;
72235;SDS011;60146;52.498;13.462;2022-09-30T04:06:11;40.47;;;12.57;;
72235;SDS011;60146;52.498;13.462;2022-09-30T04:08:36;21.23;;;9.20;;
72235;SDS011;60146;52.498;13.462;2022-09-30T04:11:02;50.23;;;17.20;;
72235;SDS011;60146;52.498;13.462;2022-09-30T04:13:28;28.37;;;9.73;;
72235;SDS011;60146;52.498;13.462;2022-09-30T04:15:53;25.50;;;10.00;;
72235;SDS011;60146;52.498;13.462;2022-09-30T04:18:19;21.80;;;7.73;;
72235;SDS011;60146;52.498;13.462;2022-09-30T04:20:44;26.93;;;7.57;;
72235;SDS011;60146;52.498;13.462;2022-09-30T04:23:09;18.23;;;7.27;;
72235;SDS011;60146;52.498;13.462;2022-09-30T04:25:34;27.00;;;9.10;;
72235;SDS011;60146;52.498;13.462;2022-09-30T04:28:00;21.38;;;8.27;;
72235;SDS011;60146;52.498;13.462;2022-09-30T04:30:25;24.27;;;9.50;;
72235;SDS011;60146;52.498;13.462;2022-09-30T04:32:51;25.58;;;8.52;;
72235;SDS011;60146;52.498;13.462;2022-09-30T04:35:16;20.27;;;7.13;;
72235;SDS011;60146;52.498;13.462;2022-09-30T04:37:42;21.70;;;8.43;;
72235;SDS011;60146;52.498;13.462;2022-09-30T04:40:07;20.40;;;8.63;;
72235;SDS011;60146;52.498;13.462;2022-09-30T04:42:34;18.40;;;7.10;;
72235;SDS011;60146;52.498;13.462;2022-09-30T04:44:59;21.47;;;8.83;;
72235;SDS011;60146;52.498;13.462;2022-09-30T04:47:25;48.57;;;14.17;;
72235;SDS011;60146;52.498;13.462;2022-09-30T04:49:50;50.50;;;14.67;;
72235;SDS011;60146;52.498;13.462;2022-09-30T04:52:15;26.90;;;10.30;;
72235;SDS011;60146;52.498;13.462;2022-09-30T04:54:40;22.40;;;8.80;;
72235;SDS011;60146;52.498;13.462;2022-09-30T04:57:06;39.27;;;11.93;;
72235;SDS011;60146;52.498;13.462;2022-09-30T04:59:31;35.20;;;11.40;;
72235;SDS011;60146;52.498;13.462;2022-09-30T05:02:02;68.87;;;19.23;;
72235;SDS011;60146;52.498;13.462;2022-09-30T05:04:30;31.37;;;10.17;;
72235;SDS011;60146;52.498;13.462;2022-09-30T05:06:57;24.77;;;8.50;;
72235;SDS011;60146;52.498;13.462;2022-09-30T05:09:22;24.90;;;9.23;;
72235;SDS011;60146;52.498;13.462;2022-09-30T05:11:48;22.10;;;8.00;;
72235;SDS011;60146;52.498;13.462;2022-09-30T05:14:13;25.60;;;9.67;;
72235;SDS011;60146;52.498;13.462;2022-09-30T05:16:38;16.07;;;7.23;;
72235;SDS011;60146;52.498;13.462;2022-09-30T05:19:03;33.63;;;10.17;;
72235;SDS011;60146;52.498;13.462;2022-09-30T05:21:28;42.17;;;14.03;;
72235;SDS011;60146;52.498;13.462;2022-09-30T05:23:54;65.73;;;17.00;;
72235;SDS011;60146;52.498;13.462;2022-09-30T05:26:19;25.63;;;9.05;;
72235;SDS011;60146;52.498;13.462;2022-09-30T05:28:44;44.87;;;13.23;;
72235;SDS011;60146;52.498;13.462;2022-09-30T05:31:09;30.57;;;9.90;;
72235;SDS011;60146;52.498;13.462;2022-09-30T05:33:36;20.70;;;8.30;;
72235;SDS011;60146;52.498;13.462;2022-09-30T05:36:02;28.60;;;9.33;;
72235;SDS011;60146;52.498;13.462;2022-09-30T05:38:28;23.90;;;8.50;;
72235;SDS011;60146;52.498;13.462;2022-09-30T05:40:53;26.70;;;7.77;;
72235;SDS011;60146;52.498;13.462;2022-09-30T05:43:19;18.20;;;6.60;;
72235;SDS011;60146;52.498;13.462;2022-09-30T05:45:54;16.27;;;6.90;;
72235;SDS011;60146;52.498;13.462;2022-09-30T05:48:21;30.90;;;8.03;;
72235;SDS011;60146;52.498;13.462;2022-09-30T05:50:46;22.83;;;7.50;;
72235;SDS011;60146;52.498;13.462;2022-09-30T05:53:14;18.93;;;7.67;;
72235;SDS011;60146;52.498;13.462;2022-09-30T05:55:39;19.50;;;7.03;;
72235;SDS011;60146;52.498;13.462;2022-09-30T05:58:08;15.10;;;6.77;;
72235;SDS011;60146;52.498;13.462;2022-09-30T06:00:34;19.30;;;6.83;;
72235;SDS011;60146;52.498;13.462;2022-09-30T06:02:59;41.33;;;10.10;;
72235;SDS011;60146;52.498;13.462;2022-09-30T06:05:24;46.23;;;11.77;;
72235;SDS011;60146;52.498;13.462;2022-09-30T06:07:50;42.50;;;13.37;;
72235;SDS011;60146;52.498;13.462;2022-09-30T06:10:15;31.03;;;10.80;;
72235;SDS011;60146;52.498;13.462;2022-09-30T06:12:40;28.27;;;9.17;;
72235;SDS011;60146;52.498;13.462;2022-09-30T06:15:05;27.87;;;9.10;;
72235;SDS011;60146;52.498;13.462;2022-09-30T06:17:31;22.50;;;8.07;;
72235;SDS011;60146;52.498;13.462;2022-09-30T06:19:56;28.83;;;8.50;;
72235;SDS011;60146;52.498;13.462;2022-09-30T06:22:21;21.77;;;7.27;;
72235;SDS011;60146;52.498;13.462;2022-09-30T06:24:46;22.20;;;7.53;;
72235;SDS011;60146;52.498;13.462;2022-09-30T06:27:11;21.87;;;6.73;;
72235;SDS011;60146;52.498;13.462;2022-09-30T06:29:37;21.67;;;7.50;;
72235;SDS011;60146;52.498;13.462;2022-09-30T06:32:03;21.77;;;7.70;;
72235;SDS011;60146;52.498;13.462;2022-09-30T06:34:28;21.93;;;7.67;;
72235;SDS011;60146;52.498;13.462;2022-09-30T06:36:53;29.27;;;7.30;;
72235;SDS011;60146;52.498;13.462;2022-09-30T06:39:19;16.37;;;7.17;;
72235;SDS011;60146;52.498;13.462;2022-09-30T06:41:44;17.83;;;7.40;;
72235;SDS011;60146;52.498;13.462;2022-09-30T06:44:09;16.70;;;7.50;;
72235;SDS011;60146;52.498;13.462;2022-09-30T06:46:35;22.50;;;8.07;;
72235;SDS011;60146;52.498;13.462;2022-09-30T06:49:00;25.10;;;7.20;;
72235;SDS011;60146;52.498;13.462;2022-09-30T06:51:25;18.43;;;7.17;;
72235;SDS011;60146;52.498;13.462;2022-09-30T06:53:51;26.03;;;8.87;;
72235;SDS011;60146;52.498;13.462;2022-09-30T06:56:16;18.53;;;7.00;;
72235;SDS011;60146;52.498;13.462;2022-09-30T06:58:42;20.10;;;7.67;;
72235;SDS011;60146;52.498;13.462;2022-09-30T07:01:09;14.33;;;6.87;;
72235;SDS011;60146;52.498;13.462;2022-09-30T07:03:35;20.53;;;7.03;;
72235;SDS011;60146;52.498;13.462;2022-09-30T07:06:01;20.37;;;7.60;;
72235;SDS011;60146;52.498;13.462;2022-09-30T07:08:27;34.57;;;8.33;;
72235;SDS011;60146;52.498;13.462;2022-09-30T07:10:58;22.30;;;7.50;;
72235;SDS011;60146;52.498;13.462;2022-09-30T07:13:24;13.00;;;7.13;;
72235;SDS011;60146;52.498;13.462;2022-09-30T07:15:49;15.93;;;6.83;;
72235;SDS011;60146;52.498;13.462;2022-09-30T07:18:18;21.70;;;6.83;;
72235;SDS011;60146;52.498;13.462;2022-09-30T07:20:51;16.60;;;7.07;;
72235;SDS011;60146;52.498;13.462;2022-09-30T07:23:17;15.33;;;7.13;;
72235;SDS011;60146;52.498;13.462;2022-09-30T07:25:55;19.33;;;7.50;;
72235;SDS011;60146;52.498;13.462;2022-09-30T07:28:24;15.20;;;7.40;;
72235;SDS011;60146;52.498;13.462;2022-09-30T07:30:56;13.50;;;6.90;;
72235;SDS011;60146;52.498;13.462;2022-09-30T07:33:21;18.97;;;7.23;;
72235;SDS011;60146;52.498;13.462;2022-09-30T07:35:50;16.77;;;6.50;;
72235;SDS011;60146;52.498;13.462;2022-09-30T07:38:17;15.23;;;6.60;;
72235;SDS011;60146;52.498;13.462;2022-09-30T07:40:49;14.57;;;6.43;;
72235;SDS011;60146;52.498;13.462;2022-09-30T07:43:15;15.63;;;6.13;;
72235;SDS011;60146;52.498;13.462;2022-09-30T07:45:43;18.77;;;7.37;;
72235;SDS011;60146;52.498;13.462;2022-09-30T07:48:08;23.03;;;6.73;;
72235;SDS011;60146;52.498;13.462;2022-09-30T07:50:53;22.23;;;7.23;;
72235;SDS011;60146;52.498;13.462;2022-09-30T07:53:18;22.03;;;6.80;;
72235;SDS011;60146;52.498;13.462;2022-09-30T07:55:45;15.10;;;6.43;;
72235;SDS011;60146;52.498;13.462;2022-09-30T07:58:10;23.00;;;6.97;;
72235;SDS011;60146;52.498;13.462;2022-09-30T08:00:35;16.27;;;6.07;;
72235;SDS011;60146;52.498;13.462;2022-09-30T08:03:01;19.87;;;7.43;;
72235;SDS011;60146;52.498;13.462;2022-09-30T08:05:26;13.90;;;6.37;;
72235;SDS011;60146;52.498;13.462;2022-09-30T08:07:51;11.57;;;6.10;;
72235;SDS011;60146;52.498;13.462;2022-09-30T08:10:16;12.27;;;6.67;;
72235;SDS011;60146;52.498;13.462;2022-09-30T08:12:42;17.90;;;6.47;;
72235;SDS011;60146;52.498;13.462;2022-09-30T08:15:07;15.36;;;6.32;;
72235;SDS011;60146;52.498;13.462;2022-09-30T08:17:33;16.00;;;5.82;;
72235;SDS011;60146;52.498;13.462;2022-09-30T08:19:58;19.32;;;6.72;;
72235;SDS011;60146;52.498;13.462;2022-09-30T08:22:24;31.08;;;7.38;;
72235;SDS011;60146;52.498;13.462;2022-09-30T08:24:49;16.65;;;6.55;;
72235;SDS011;60146;52.498;13.462;2022-09-30T08:27:14;11.80;;;5.72;;
72235;SDS011;60146;52.498;13.462;2022-09-30T08:29:39;13.95;;;6.43;;
72235;SDS011;60146;52.498;13.462;2022-09-30T08:32:04;13.56;;;6.86;;
72235;SDS011;60146;52.498;13.462;2022-09-30T08:34:29;25.08;;;6.88;;
72235;SDS011;60146;52.498;13.462;2022-09-30T08:36:59;15.27;;;6.45;;
72235;SDS011;60146;52.498;13.462;2022-09-30T08:39:24;22.75;;;6.57;;
72235;SDS011;60146;52.498;13.462;2022-09-30T08:41:54;16.13;;;6.68;;
72235;SDS011;60146;52.498;13.462;2022-09-30T08:52:00;14.63;;;6.68;;
72235;SDS011;60146;52.498;13.462;2022-09-30T08:54:29;24.52;;;6.20;;
72235;SDS011;60146;52.498;13.462;2022-09-30T08:56:55;34.33;;;7.30;;
72235;SDS011;60146;52.498;13.462;2022-09-30T09:01:49;14.57;;;6.00;;
72235;SDS011;60146;52.498;13.462;2022-09-30T09:04:16;21.25;;;6.75;;
72235;SDS011;60146;52.498;13.462;2022-09-30T09:06:52;31.67;;;7.18;;
72235;SDS011;60146;52.498;13.462;2022-09-30T09:14:28;8.02;;;5.72;;
72235;SDS011;60146;52.498;13.462;2022-09-30T09:17:02;16.70;;;6.53;;
72235;SDS011;60146;52.498;13.462;2022-09-30T09:19:35;41.33;;;8.02;;
72235;SDS011;60146;52.498;13.462;2022-09-30T09:22:01;12.05;;;5.97;;
72235;SDS011;60146;52.498;13.462;2022-09-30T09:24:27;33.20;;;8.18;;
72235;SDS011;60146;52.498;13.462;2022-09-30T09:26:54;9.80;;;6.05;;
72235;SDS011;60146;52.498;13.462;2022-09-30T09:29:37;11.48;;;5.13;;
72235;SDS011;60146;52.498;13.462;2022-09-30T09:32:15;7.65;;;4.95;;
72235;SDS011;60146;52.498;13.462;2022-09-30T09:34:41;9.20;;;5.03;;
72235;SDS011;60146;52.498;13.462;2022-09-30T09:42:11;10.23;;;4.78;;
72235;SDS011;60146;52.498;13.462;2022-09-30T09:45:02;27.15;;;6.80;;
72235;SDS011;60146;52.498;13.462;2022-09-30T09:47:26;8.00;;;4.60;;
72235;SDS011;60146;52.498;13.462;2022-09-30T09:49:58;11.63;;;5.10;;
72235;SDS011;60146;52.498;13.462;2022-09-30T09:52:48;9.23;;;5.13;;
72235;SDS011;60146;52.498;13.462;2022-09-30T09:55:15;25.55;;;6.45;;
72235;SDS011;60146;52.498;13.462;2022-09-30T09:57:42;18.35;;;5.38;;
72235;SDS011;60146;52.498;13.462;2022-09-30T10:00:21;10.27;;;5.22;;
72235;SDS011;60146;52.498;13.462;2022-09-30T10:03:10;19.13;;;5.10;;
72235;SDS011;60146;52.498;13.462;2022-09-30T10:05:37;8.95;;;4.32;;
72235;SDS011;60146;52.498;13.462;2022-09-30T10:08:18;9.27;;;4.43;;
72235;SDS011;60146;52.498;13.462;2022-09-30T10:10:47;10.93;;;4.85;;
72235;SDS011;60146;52.498;13.462;2022-09-30T10:13:17;4.32;;;3.50;;
72235;SDS011;60146;52.498;13.462;2022-09-30T10:21:05;7.20;;;4.20;;
72235;SDS011;60146;52.498;13.462;2022-09-30T10:23:32;4.25;;;3.40;;
72235;SDS011;60146;52.498;13.462;2022-09-30T10:25:59;10.05;;;3.63;;
72235;SDS011;60146;52.498;13.462;2022-09-30T10:28:32;4.65;;;3.47;;
72235;SDS011;60146;52.498;13.462;2022-09-30T10:30:58;7.05;;;4.30;;
72235;SDS011;60146;52.498;13.462;2022-09-30T10:33:45;6.80;;;4.40;;
72235;SDS011;60146;52.498;13.462;2022-09-30T10:36:17;7.55;;;4.35;;
72235;SDS011;60146;52.498;13.462;2022-09-30T10:38:44;6.55;;;3.78;;
72235;SDS011;60146;52.498;13.462;2022-09-30T10:41:11;5.75;;;3.70;;
72235;SDS011;60146;52.498;13.462;2022-09-30T10:43:38;9.88;;;3.80;;
72235;SDS011;60146;52.498;13.462;2022-09-30T10:46:06;13.65;;;4.93;;
72235;SDS011;60146;52.498;13.462;2022-09-30T10:48:33;7.30;;;4.00;;
72235;SDS011;60146;52.498;13.462;2022-09-30T10:50:59;7.70;;;3.72;;
72235;SDS011;60146;52.498;13.462;2022-09-30T10:53:28;5.15;;;3.70;;
72235;SDS011;60146;52.498;13.462;2022-09-30T10:55:55;8.55;;;3.90;;
72235;SDS011;60146;52.498;13.462;2022-09-30T11:00:49;6.13;;;3.70;;
72235;SDS011;60146;52.498;13.462;2022-09-30T11:03:17;6.82;;;3.58;;
72235;SDS011;60146;52.498;13.462;2022-09-30T11:05:44;12.68;;;4.00;;
72235;SDS011;60146;52.498;13.462;2022-09-30T11:08:28;30.63;;;5.82;;
72235;SDS011;60146;52.498;13.462;2022-09-30T11:10:57;5.63;;;2.95;;
72235;SDS011;60146;52.498;13.462;2022-09-30T11:13:27;12.48;;;3.50;;
72235;SDS011;60146;52.498;13.462;2022-09-30T11:16:05;4.90;;;3.53;;
72235;SDS011;60146;52.498;13.462;2022-09-30T11:21:11;18.80;;;4.25;;
72235;SDS011;60146;52.498;13.462;2022-09-30T11:23:47;11.20;;;4.70;;
72235;SDS011;60146;52.498;13.462;2022-09-30T11:26:34;8.65;;;4.43;;
72235;SDS011;60146;52.498;13.462;2022-09-30T11:31:30;16.33;;;4.03;;
72235;SDS011;60146;52.498;13.462;2022-09-30T11:34:13;15.98;;;4.97;;
72235;SDS011;60146;52.498;13.462;2022-09-30T11:39:13;7.18;;;3.58;;
72235;SDS011;60146;52.498;13.462;2022-09-30T11:41:44;4.72;;;3.22;;
72235;SDS011;60146;52.498;13.462;2022-09-30T11:44:17;11.48;;;3.13;;
72235;SDS011;60146;52.498;13.462;2022-09-30T11:46:56;6.47;;;2.80;;
72235;SDS011;60146;52.498;13.462;2022-09-30T11:57:02;2.53;;;1.90;;
72235;SDS011;60146;52.498;13.462;2022-09-30T11:59:34;2.97;;;2.22;;
72235;SDS011;60146;52.498;13.462;2022-09-30T12:02:02;8.93;;;2.55;;
72235;SDS011;60146;52.498;13.462;2022-09-30T12:04:32;4.18;;;2.13;;
72235;SDS011;60146;52.498;13.462;2022-09-30T12:07:16;3.83;;;2.10;;
72235;SDS011;60146;52.498;13.462;2022-09-30T12:09:43;2.30;;;2.00;;
72235;SDS011;60146;52.498;13.462;2022-09-30T12:12:11;7.07;;;2.70;;
72235;SDS011;60146;52.498;13.462;2022-09-30T12:14:48;7.18;;;2.60;;
72235;SDS011;60146;52.498;13.462;2022-09-30T12:17:19;10.27;;;3.20;;
72235;SDS011;60146;52.498;13.462;2022-09-30T12:19:50;4.07;;;2.10;;
72235;SDS011;60146;52.498;13.462;2022-09-30T12:22:26;10.75;;;2.60;;
72235;SDS011;60146;52.498;13.462;2022-09-30T12:24:53;2.50;;;1.80;;
72235;SDS011;60146;52.498;13.462;2022-09-30T12:27:33;2.70;;;1.60;;
72235;SDS011;60146;52.498;13.462;2022-09-30T12:33:00;3.65;;;1.50;;
72235;SDS011;60146;52.498;13.462;2022-09-30T12:40:59;6.15;;;2.05;;
72235;SDS011;60146;52.498;13.462;2022-09-30T12:48:20;1.90;;;1.53;;
72235;SDS011;60146;52.498;13.462;2022-09-30T12:50:50;2.55;;;1.35;;
72235;SDS011;60146;52.498;13.462;2022-09-30T12:55:48;3.20;;;1.40;;
72235;SDS011;60146;52.498;13.462;2022-09-30T12:58:24;4.25;;;1.55;;
72235;SDS011;60146;52.498;13.462;2022-09-30T13:01:04;3.85;;;1.38;;
72235;SDS011;60146;52.498;13.462;2022-09-30T13:03:42;29.50;;;2.90;;
72235;SDS011;60146;52.498;13.462;2022-09-30T13:06:07;5.82;;;1.52;;
72235;SDS011;60146;52.498;13.462;2022-09-30T13:08:40;3.40;;;1.50;;
72235;SDS011;60146;52.498;13.462;2022-09-30T13:11:05;4.43;;;1.25;;
72235;SDS011;60146;52.498;13.462;2022-09-30T13:13:32;3.40;;;1.50;;
72235;SDS011;60146;52.498;13.462;2022-09-30T13:16:01;2.75;;;1.33;;
72235;SDS011;60146;52.498;13.462;2022-09-30T13:20:56;1.13;;;1.02;;
72235;SDS011;60146;52.498;13.462;2022-09-30T13:23:40;1.77;;;1.23;;
72235;SDS011;60146;52.498;13.462;2022-09-30T13:28:46;2.85;;;1.48;;
72235;SDS011;60146;52.498;13.462;2022-09-30T13:31:13;3.10;;;1.35;;
72235;SDS011;60146;52.498;13.462;2022-09-30T13:33:41;1.80;;;1.40;;
72235;SDS011;60146;52.498;13.462;2022-09-30T13:36:13;1.83;;;1.20;;
72235;SDS011;60146;52.498;13.462;2022-09-30T13:38:43;3.83;;;1.20;;
72235;SDS011;60146;52.498;13.462;2022-09-30T13:41:21;4.95;;;1.52;;
72235;SDS011;60146;52.498;13.462;2022-09-30T13:46:38;8.13;;;1.98;;
72235;SDS011;60146;52.498;13.462;2022-09-30T13:49:18;1.83;;;1.20;;
72235;SDS011;60146;52.498;13.462;2022-09-30T13:51:45;3.63;;;1.30;;
72235;SDS011;60146;52.498;13.462;2022-09-30T13:56:47;1.60;;;1.20;;
72235;SDS011;60146;52.498;13.462;2022-09-30T14:11:45;1.90;;;1.30;;
72235;SDS011;60146;52.498;13.462;2022-09-30T14:19:32;2.00;;;1.10;;
72235;SDS011;60146;52.498;13.462;2022-09-30T14:22:03;1.65;;;1.05;;
72235;SDS011;60146;52.498;13.462;2022-09-30T14:24:31;2.60;;;1.30;;
72235;SDS011;60146;52.498;13.462;2022-09-30T14:29:44;2.00;;;1.15;;
72235;SDS011;60146;52.498;13.462;2022-09-30T14:32:16;2.65;;;1.15;;
72235;SDS011;60146;52.498;13.462;2022-09-30T14:34:43;6.65;;;1.23;;
72235;SDS011;60146;52.498;13.462;2022-09-30T14:37:11;3.67;;;1.30;;
72235;SDS011;60146;52.498;13.462;2022-09-30T14:39:38;4.97;;;1.20;;
72235;SDS011;60146;52.498;13.462;2022-09-30T14:42:03;4.22;;;1.40;;
72235;SDS011;60146;52.498;13.462;2022-09-30T14:44:30;2.45;;;1.00;;
72235;SDS011;60146;52.498;13.462;2022-09-30T14:47:00;2.13;;;1.20;;
72235;SDS011;60146;52.498;13.462;2022-09-30T14:49:30;6.20;;;1.50;;
72235;SDS011;60146;52.498;13.462;2022-09-30T14:52:00;11.23;;;1.75;;
72235;SDS011;60146;52.498;13.462;2022-09-30T14:54:27;12.02;;;3.83;;
72235;SDS011;60146;52.498;13.462;2022-09-30T14:56:56;8.93;;;1.92;;
72235;SDS011;60146;52.498;13.462;2022-09-30T14:59:28;4.38;;;1.40;;
72235;SDS011;60146;52.498;13.462;2022-09-30T15:02:03;2.00;;;1.30;;
72235;SDS011;60146;52.498;13.462;2022-09-30T15:04:32;4.55;;;1.63;;
72235;SDS011;60146;52.498;13.462;2022-09-30T15:06:58;3.95;;;1.40;;
72235;SDS011;60146;52.498;13.462;2022-09-30T15:11:54;5.63;;;1.37;;
72235;SDS011;60146;52.498;13.462;2022-09-30T15:14:25;2.75;;;1.58;;
72235;SDS011;60146;52.498;13.462;2022-09-30T15:16:52;2.53;;;1.50;;
72235;SDS011;60146;52.498;13.462;2022-09-30T15:19:28;1.30;;;1.20;;
72235;SDS011;60146;52.498;13.462;2022-09-30T15:21:54;6.97;;;1.43;;
72235;SDS011;60146;52.498;13.462;2022-09-30T15:24:20;5.43;;;1.97;;
72235;SDS011;60146;52.498;13.462;2022-09-30T15:26:46;2.10;;;1.30;;
72235;SDS011;60146;52.498;13.462;2022-09-30T15:29:13;4.57;;;1.80;;
72235;SDS011;60146;52.498;13.462;2022-09-30T15:31:45;1.73;;;1.20;;
72235;SDS011;60146;52.498;13.462;2022-09-30T15:34:20;1.40;;;1.20;;
72235;SDS011;60146;52.498;13.462;2022-09-30T15:36:59;12.57;;;2.10;;
72235;SDS011;60146;52.498;13.462;2022-09-30T15:39:30;6.80;;;1.47;;
72235;SDS011;60146;52.498;13.462;2022-09-30T15:42:26;4.27;;;1.50;;
72235;SDS011;60146;52.498;13.462;2022-09-30T15:44:52;5.70;;;2.10;;
72235;SDS011;60146;52.498;13.462;2022-09-30T15:47:17;7.03;;;1.77;;
72235;SDS011;60146;52.498;13.462;2022-09-30T15:49:44;2.73;;;1.70;;
72235;SDS011;60146;52.498;13.462;2022-09-30T15:54:44;10.93;;;1.80;;
72235;SDS011;60146;52.498;13.462;2022-09-30T16:02:55;9.37;;;1.80;;
72235;SDS011;60146;52.498;13.462;2022-09-30T16:05:30;40.20;;;4.17;;
72235;SDS011;60146;52.498;13.462;2022-09-30T16:07:56;15.83;;;2.90;;
72235;SDS011;60146;52.498;13.462;2022-09-30T16:10:21;17.93;;;3.63;;
72235;SDS011;60146;52.498;13.462;2022-09-30T16:12:47;13.43;;;2.53;;
72235;SDS011;60146;52.498;13.462;2022-09-30T16:15:13;21.03;;;3.17;;
72235;SDS011;60146;52.498;13.462;2022-09-30T16:17:46;7.60;;;2.13;;
72235;SDS011;60146;52.498;13.462;2022-09-30T16:27:37;18.50;;;3.50;;
72235;SDS011;60146;52.498;13.462;2022-09-30T16:30:03;30.73;;;3.87;;
72235;SDS011;60146;52.498;13.462;2022-09-30T16:32:29;10.47;;;2.87;;
72235;SDS011;60146;52.498;13.462;2022-09-30T16:34:57;19.97;;;3.63;;
72235;SDS011;60146;52.498;13.462;2022-09-30T16:37:22;32.40;;;3.43;;
72235;SDS011;60146;52.498;13.462;2022-09-30T16:39:48;21.83;;;3.50;;
72235;SDS011;60146;52.498;13.462;2022-09-30T16:42:14;25.37;;;5.20;;
72235;SDS011;60146;52.498;13.462;2022-09-30T16:44:40;22.87;;;4.17;;
72235;SDS011;60146;52.498;13.462;2022-09-30T16:47:06;10.20;;;2.80;;
72235;SDS011;60146;52.498;13.462;2022-09-30T16:49:31;15.53;;;5.17;;
72235;SDS011;60146;52.498;13.462;2022-09-30T16:51:58;25.40;;;5.30;;
72235;SDS011;60146;52.498;13.462;2022-09-30T16:54:23;20.40;;;3.27;;
72235;SDS011;60146;52.498;13.462;2022-09-30T16:56:52;13.67;;;2.73;;
72235;SDS011;60146;52.498;13.462;2022-09-30T16:59:23;14.63;;;2.60;;
72235;SDS011;60146;52.498;13.462;2022-09-30T17:01:48;22.30;;;3.17;;
72235;SDS011;60146;52.498;13.462;2022-09-30T17:04:13;23.70;;;3.70;;
72235;SDS011;60146;52.498;13.462;2022-09-30T17:06:38;10.80;;;3.00;;
72235;SDS011;60146;52.498;13.462;2022-09-30T17:09:04;20.13;;;3.50;;
72235;SDS011;60146;52.498;13.462;2022-09-30T17:11:32;15.07;;;3.23;;